Time;durP1;ratioP1;P1;durP2;ratioP2;P2;SDS_P1;SDS_P2;PMS_P1;PMS_P2;Temp;Humidity;BMP_temperature;BMP_pressure;BME280_temperature;BME280_humidity;BME280_pressure;Samples;Min_cycle;Max_cycle;Signal;HPM_P1;HPM_P2
2024/04/08 00:01:27;;;;;;;6.70;5.00;;;;;;;12.56;65.93;100820.48;104124;1307;22548;-63
2024/04/08 00:03:52;;;;;;;6.20;4.40;;;;;;;12.53;66.15;100817.27;104136;1309;22555;-63
2024/04/08 00:06:18;;;;;;;8.00;4.00;;;;;;;12.50;66.39;100818.71;104099;1309;22817;-62
2024/04/08 00:08:43;;;;;;;6.00;4.80;;;;;;;12.49;66.21;100817.00;104157;1309;22644;-62
2024/04/08 00:11:08;;;;;;;6.50;4.90;;;;;;;12.44;66.49;100813.67;104096;1292;23483;-62
2024/04/08 00:13:38;;;;;;;6.50;4.70;;;;;;;12.42;67.16;100813.20;103974;1309;22553;-63
2024/04/08 00:16:05;;;;;;;8.80;5.30;;;;;;;12.39;67.08;100816.03;104108;1301;24291;-62
2024/04/08 00:18:30;;;;;;;;;;;;;;;12.32;66.70;100822.05;104210;1309;24233;-63
2024/04/08 00:21:03;;;;;;;6.90;4.40;;;;;;;12.30;66.97;100821.40;104073;1291;25496;-63
2024/04/08 00:23:29;;;;;;;8.80;4.70;;;;;;;12.30;68.32;100825.88;104119;1309;23927;-62
2024/04/08 00:25:55;;;;;;;8.80;4.60;;;;;;;12.28;67.78;100831.63;104097;1308;22564;-63
2024/04/08 00:28:21;;;;;;;5.30;4.40;;;;;;;12.24;67.27;100829.96;104070;1308;25427;-62
2024/04/08 00:30:46;;;;;;;12.20;4.30;;;;;;;12.24;67.55;100826.01;103785;1288;22573;-64
2024/04/08 00:33:12;;;;;;;5.00;4.30;;;;;;;12.23;67.38;100825.16;104002;1307;23123;-62
2024/04/08 00:35:37;;;;;;;7.10;4.30;;;;;;;12.19;67.25;100827.30;104118;1307;25266;-62
2024/04/08 00:38:03;;;;;;;8.90;4.90;;;;;;;12.15;67.58;100828.59;104128;1308;22577;-62
2024/04/08 00:40:38;;;;;;;8.00;4.60;;;;;;;12.12;67.53;100827.27;104060;1304;22574;-63
2024/04/08 00:43:07;;;;;;;4.40;3.90;;;;;;;12.08;67.82;100825.95;104220;1294;22573;-63
2024/04/08 00:45:36;;;;;;;7.00;4.50;;;;;;;12.07;68.75;100827.70;104380;1309;22564;-62
2024/04/08 00:48:03;;;;;;;5.20;3.90;;;;;;;12.08;68.13;100827.35;103865;1297;23527;-63
2024/04/08 00:50:29;;;;;;;4.80;4.10;;;;;;;12.02;67.93;100825.55;104569;1309;25467;-64
2024/04/08 00:52:55;;;;;;;6.70;4.60;;;;;;;11.98;68.18;100817.16;104935;1292;22604;-63
2024/04/08 00:55:22;;;;;;;9.10;4.10;;;;;;;11.97;67.93;100810.10;104657;1308;22558;-65
2024/04/08 00:57:50;;;;;;;9.60;4.90;;;;;;;12.01;69.25;100803.63;104601;1304;22580;-64
2024/04/08 01:00:15;;;;;;;5.70;4.80;;;;;;;12.06;68.34;100801.47;104967;1307;22557;-64
2024/04/08 01:02:42;;;;;;;12.80;4.70;;;;;;;12.05;68.16;100802.16;104590;1290;22554;-64
2024/04/08 01:05:13;;;;;;;7.40;5.50;;;;;;;12.02;68.11;100798.26;104338;1308;22603;-63
2024/04/08 01:07:39;;;;;;;9.50;5.80;;;;;;;12.02;68.65;100795.65;105091;1308;22600;-64
2024/04/08 01:10:05;;;;;;;13.90;5.80;;;;;;;12.06;68.44;100792.83;105243;1308;22642;-65
2024/04/08 01:12:30;;;;;;;7.80;4.90;;;;;;;12.07;68.57;100793.67;104988;1289;22579;-63
2024/04/08 01:14:56;;;;;;;6.40;5.40;;;;;;;12.06;68.37;100791.45;105095;1308;22687;-63
2024/04/08 01:17:21;;;;;;;9.40;6.00;;;;;;;12.09;68.84;100791.05;104801;1308;22565;-64
2024/04/08 01:19:48;;;;;;;5.60;5.00;;;;;;;12.13;69.14;100792.68;105406;1308;22812;-63
2024/04/08 01:22:13;;;;;;;7.40;5.10;;;;;;;12.18;69.26;100790.33;105556;1289;22558;-63
2024/04/08 01:24:39;;;;;;;6.30;5.20;;;;;;;12.22;69.24;100787.83;105690;1308;22565;-63
2024/04/08 01:27:04;;;;;;;7.90;4.80;;;;;;;12.24;70.01;100789.35;105586;1309;22654;-63
2024/04/08 01:29:29;;;;;;;8.00;5.30;;;;;;;12.20;69.81;100785.12;105363;1309;23114;-63
2024/04/08 01:31:55;;;;;;;8.60;5.30;;;;;;;12.17;69.58;100781.02;105293;1288;22794;-62
2024/04/08 01:34:20;;;;;;;6.30;4.60;;;;;;;12.14;69.55;100779.17;105067;1303;25413;-62
2024/04/08 01:36:46;;;;;;;7.20;4.70;;;;;;;12.12;69.65;100778.02;105140;1306;23918;-65
2024/04/08 01:39:11;;;;;;;5.50;4.80;;;;;;;12.08;69.40;100777.91;104856;1306;26012;-64
2024/04/08 01:41:37;;;;;;;11.70;5.20;;;;;;;12.06;69.53;100781.41;104798;1310;22561;-64
2024/04/08 01:44:02;;;;;;;8.90;5.00;;;;;;;12.04;69.66;100780.94;105227;1291;23155;-64
2024/04/08 01:46:28;;;;;;;7.50;4.90;;;;;;;12.03;69.72;100782.69;104592;1308;22737;-63
2024/04/08 01:48:53;;;;;;;7.00;5.70;;;;;;;12.01;69.86;100779.61;104681;1307;22551;-66
2024/04/08 01:51:19;;;;;;;13.70;5.50;;;;;;;12.02;70.25;100781.50;104639;1309;22561;-64
2024/04/08 01:53:44;;;;;;;8.70;4.70;;;;;;;12.02;69.79;100778.22;104651;1290;22605;-64
2024/04/08 01:56:09;;;;;;;9.70;5.80;;;;;;;12.01;70.21;100779.45;104563;1304;24343;-64
2024/04/08 01:58:35;;;;;;;8.90;5.70;;;;;;;12.01;70.12;100778.77;105389;1285;24733;-63
2024/04/08 02:01:00;;;;;;;9.20;5.00;;;;;;;11.99;69.83;100778.43;104561;1308;22657;-65
2024/04/08 02:03:26;;;;;;;10.90;6.00;;;;;;;11.99;70.10;100774.81;104129;1288;22585;-65
2024/04/08 02:05:51;;;;;;;11.70;6.00;;;;;;;12.02;70.18;100773.02;104067;1308;27611;-65
2024/04/08 02:08:17;;;;;;;7.50;6.10;;;;;;;12.07;70.33;100778.30;104057;1308;22562;-67
2024/04/08 02:10:45;;;;;;;11.30;6.80;;;;;;;12.10;70.71;100773.38;104176;1308;23434;-65
2024/04/08 02:13:11;;;;;;;8.40;6.10;;;;;;;12.16;71.11;100771.02;103895;1294;22606;-66
2024/04/08 02:15:36;;;;;;;9.10;5.00;;;;;;;12.19;70.37;100768.20;104164;1308;25364;-65
2024/04/08 02:18:02;;;;;;;9.70;5.70;;;;;;;12.09;71.99;100763.38;104166;1307;25390;-66
2024/04/08 02:20:27;;;;;;;10.20;5.50;;;;;;;12.01;70.83;100765.61;104156;1308;24488;-65
2024/04/08 02:22:53;;;;;;;9.10;5.80;;;;;;;12.00;70.72;100759.41;104146;1308;24298;-66
2024/04/08 02:25:18;;;;;;;5.40;4.90;;;;;;;12.00;70.70;100760.98;104111;1307;25507;-65
2024/04/08 02:27:44;;;;;;;5.70;5.20;;;;;;;11.99;70.92;100761.34;104073;1309;22587;-66
2024/04/08 02:30:10;;;;;;;11.80;5.10;;;;;;;11.99;70.79;100756.16;104142;1309;25581;-65
2024/04/08 02:32:35;;;;;;;8.20;5.20;;;;;;;11.97;70.78;100760.35;103978;1309;24364;-65
2024/04/08 02:35:02;;;;;;;10.90;5.50;;;;;;;11.92;70.96;100761.67;104086;1291;22640;-65
2024/04/08 02:37:27;;;;;;;8.80;5.40;;;;;;;11.86;70.92;100764.73;104430;1302;22554;-64
2024/04/08 02:39:53;;;;;;;6.60;5.60;;;;;;;11.83;70.75;100767.72;104147;1308;22557;-66
2024/04/08 02:42:18;;;;;;;7.60;5.20;;;;;;;11.83;71.04;100769.61;104178;1308;25454;-66
2024/04/08 02:44:44;;;;;;;5.90;5.00;;;;;;;11.83;71.07;100761.49;104135;1289;24682;-65
2024/04/08 02:47:09;;;;;;;5.60;5.10;;;;;;;11.82;71.37;100758.76;103942;1304;24395;-66
2024/04/08 02:49:34;;;;;;;7.90;5.10;;;;;;;11.81;71.18;100754.45;104156;1309;22551;-65
2024/04/08 02:52:00;;;;;;;9.50;5.60;;;;;;;11.82;71.49;100756.52;103950;1309;23823;-65
2024/04/08 02:54:25;;;;;;;14.80;5.60;;;;;;;11.86;71.66;100751.09;104011;1308;25090;-65
2024/04/08 02:56:51;;;;;;;8.80;5.80;;;;;;;11.91;71.35;100744.60;104007;1309;22561;-65
2024/04/08 02:59:16;;;;;;;12.60;5.70;;;;;;;11.94;71.22;100734.69;104095;1305;24265;-66
2024/04/08 03:01:42;;;;;;;6.00;5.30;;;;;;;11.90;71.40;100727.69;104110;1308;22547;-64
2024/04/08 03:04:07;;;;;;;8.60;5.00;;;;;;;11.89;71.63;100727.71;104121;1291;22562;-65
2024/04/08 03:06:33;;;;;;;8.70;5.70;;;;;;;11.89;71.69;100727.88;104168;1304;22586;-66
2024/04/08 03:08:58;;;;;;;8.70;5.40;;;;;;;11.88;71.79;100726.17;104130;1307;22563;-66
2024/04/08 03:11:24;;;;;;;8.20;5.10;;;;;;;11.86;71.91;100726.20;104105;1301;24172;-66
2024/04/08 03:13:50;;;;;;;6.40;5.20;;;;;;;11.85;72.19;100727.42;104098;1285;22569;-65
2024/04/08 03:16:15;;;;;;;10.00;5.30;;;;;;;11.84;72.09;100727.46;104201;1308;22657;-65
2024/04/08 03:18:41;;;;;;;6.80;5.10;;;;;;;11.84;72.14;100721.76;104017;1308;22555;-66
2024/04/08 03:21:06;;;;;;;9.40;5.40;;;;;;;11.83;72.16;100718.31;104098;1308;25337;-67
2024/04/08 03:23:32;;;;;;;8.60;5.20;;;;;;;11.84;72.21;100707.58;103816;1309;22511;-65
2024/04/08 03:26:06;;;;;;;8.00;5.60;;;;;;;11.85;72.40;100704.63;104105;1291;22636;-66
2024/04/08 03:28:32;;;;;;;6.60;5.40;;;;;;;11.86;72.45;100700.98;104125;1307;22917;-66
2024/04/08 03:31:01;;;;;;;12.70;5.90;;;;;;;11.88;72.57;100695.23;104041;1304;22570;-65
2024/04/08 03:33:26;;;;;;;11.00;6.10;;;;;;;11.90;72.72;100695.03;104307;1309;22669;-66
2024/04/08 03:35:52;;;;;;;6.30;4.90;;;;;;;11.93;73.08;100694.45;104077;1289;23978;-65
2024/04/08 03:38:19;;;;;;;13.20;6.70;;;;;;;11.94;72.80;100690.10;104106;1302;22729;-65
2024/04/08 03:40:45;;;;;;;7.30;4.70;;;;;;;11.96;73.18;100693.33;104092;1302;22572;-65
2024/04/08 03:43:11;;;;;;;7.30;5.90;;;;;;;11.95;73.10;100693.55;104115;1304;22548;-65
2024/04/08 03:45:41;;;;;;;10.00;5.30;;;;;;;11.92;73.04;100696.54;104045;1291;22503;-65
2024/04/08 03:48:07;;;;;;;6.40;5.20;;;;;;;11.92;73.03;100693.79;104161;1308;22809;-66
2024/04/08 03:50:37;;;;;;;6.80;5.40;;;;;;;11.91;73.06;100685.68;104013;1308;22560;-66
2024/04/08 03:53:03;;;;;;;8.90;5.10;;;;;;;11.91;73.35;100682.92;104085;1308;22673;-65
2024/04/08 03:55:30;;;;;;;9.60;5.40;;;;;;;11.91;73.30;100681.71;104101;1291;24463;-66
2024/04/08 03:57:56;;;;;;;8.10;5.20;;;;;;;11.89;73.41;100680.70;103873;1307;22556;-66
2024/04/08 04:00:22;;;;;;;10.60;6.40;;;;;;;11.91;73.76;100683.42;104313;1301;22544;-65
2024/04/08 04:02:47;;;;;;;8.70;6.00;;;;;;;11.92;74.22;100691.00;104114;1307;22721;-66
2024/04/08 04:05:13;;;;;;;8.70;6.00;;;;;;;11.91;74.08;100697.77;103923;1305;22635;-66
2024/04/08 04:07:38;;;;;;;9.10;5.70;;;;;;;11.91;73.83;100699.33;103981;1306;22584;-65
2024/04/08 04:10:05;;;;;;;7.50;5.70;;;;;;;11.90;73.64;100697.80;103938;1304;25566;-65
2024/04/08 04:12:36;;;;;;;10.40;5.80;;;;;;;11.89;73.73;100695.73;104062;1303;22686;-65
2024/04/08 04:15:03;;;;;;;7.40;5.40;;;;;;;11.89;73.89;100694.02;104032;1286;25020;-62
2024/04/08 04:17:28;;;;;;;7.00;5.70;;;;;;;11.90;73.72;100694.35;104219;1307;22657;-65
2024/04/08 04:19:54;;;;;;;8.40;5.00;;;;;;;11.91;73.73;100692.23;104005;1304;23951;-65
2024/04/08 04:22:19;;;;;;;7.90;5.40;;;;;;;11.93;74.01;100687.38;104142;1303;22681;-63
2024/04/08 04:24:45;;;;;;;6.20;5.60;;;;;;;11.95;74.99;100686.30;103992;1298;22604;-63
2024/04/08 04:27:11;;;;;;;11.60;5.90;;;;;;;11.98;74.39;100685.88;104053;1289;22600;-63
2024/04/08 04:29:36;;;;;;;7.90;5.50;;;;;;;11.99;74.28;100675.12;103985;1309;22597;-63
2024/04/08 04:32:02;;;;;;;7.70;5.90;;;;;;;12.02;74.22;100667.98;103832;1303;22579;-63
2024/04/08 04:34:27;;;;;;;11.30;6.10;;;;;;;12.08;74.25;100656.95;103971;1304;22579;-63
2024/04/08 04:36:53;;;;;;;8.60;5.80;;;;;;;12.12;74.58;100653.94;104066;1290;22562;-63
2024/04/08 04:39:18;;;;;;;6.40;5.70;;;;;;;12.15;74.61;100649.90;103846;1310;22566;-62
2024/04/08 04:41:44;;;;;;;10.90;6.60;;;;;;;12.18;74.61;100641.02;104207;1303;22595;-62
2024/04/08 04:44:10;;;;;;;15.00;7.60;;;;;;;12.21;74.75;100626.95;103933;1298;22546;-63
2024/04/08 04:46:35;;;;;;;8.90;6.40;;;;;;;12.25;74.91;100608.02;103652;1298;23022;-61
2024/04/08 04:49:01;;;;;;;7.30;5.70;;;;;;;12.31;75.37;100599.95;104083;1309;22809;-63
2024/04/08 04:51:26;;;;;;;8.60;6.20;;;;;;;12.38;76.84;100614.30;104063;1309;22596;-64
2024/04/08 04:53:52;;;;;;;11.30;6.70;;;;;;;12.48;77.44;100632.88;104084;1304;26569;-63
2024/04/08 04:56:17;;;;;;;15.20;7.20;;;;;;;12.63;77.13;100635.46;103960;1290;22550;-60
2024/04/08 04:58:42;;;;;;;10.70;6.40;;;;;;;12.73;76.39;100630.36;103953;1303;25610;-63
2024/04/08 05:01:08;;;;;;;15.70;6.10;;;;;;;12.84;76.48;100635.30;104062;1302;22577;-64
2024/04/08 05:03:33;;;;;;;8.20;6.00;;;;;;;12.94;76.71;100644.39;103923;1303;25371;-64
2024/04/08 05:06:00;;;;;;;8.20;5.40;;;;;;;13.01;77.04;100649.71;103747;1294;25509;-63
2024/04/08 05:08:25;;;;;;;10.30;5.50;;;;;;;13.05;77.34;100664.14;103803;1309;22840;-63
2024/04/08 05:10:51;;;;;;;6.80;5.70;;;;;;;13.06;76.42;100664.12;103825;1309;24356;-63
2024/04/08 05:13:18;;;;;;;12.20;6.30;;;;;;;13.09;76.14;100659.88;103990;1309;22550;-64
2024/04/08 05:15:56;;;;;;;11.40;6.00;;;;;;;13.15;75.96;100654.05;104021;1302;22660;-64
2024/04/08 05:18:22;;;;;;;8.60;5.30;;;;;;;13.18;76.17;100646.87;103901;1291;22822;-64
2024/04/08 05:20:47;;;;;;;8.70;5.60;;;;;;;13.22;76.05;100641.06;103958;1309;25291;-64
2024/04/08 05:23:14;;;;;;;7.70;5.50;;;;;;;13.25;75.77;100643.23;103895;1309;23923;-65
2024/04/08 05:25:40;;;;;;;;;;;;;;;13.27;76.38;100644.05;103434;1294;23952;-62
2024/04/08 05:28:05;;;;;;;6.90;5.30;;;;;;;13.28;76.37;100639.02;103616;1290;22684;-63
2024/04/08 05:30:30;;;;;;;11.20;5.10;;;;;;;13.30;77.24;100637.21;103568;1297;22590;-64
2024/04/08 05:32:56;;;;;;;10.50;5.60;;;;;;;13.33;76.61;100634.54;103704;1309;22558;-64
2024/04/08 05:35:21;;;;;;;8.40;5.70;;;;;;;13.40;76.67;100626.92;103804;1309;22560;-65
2024/04/08 05:37:47;;;;;;;7.40;5.50;;;;;;;13.47;77.15;100626.55;103866;1304;22924;-65
2024/04/08 05:40:16;;;;;;;11.40;7.10;;;;;;;13.51;77.13;100631.27;103555;1310;22557;-65
2024/04/08 05:42:42;;;;;;;10.20;6.70;;;;;;;13.58;77.46;100631.58;103840;1307;22643;-65
2024/04/08 05:45:07;;;;;;;11.50;7.00;;;;;;;13.66;76.92;100627.54;103912;1309;24414;-66
2024/04/08 05:47:33;;;;;;;8.00;5.90;;;;;;;13.77;76.73;100624.81;103839;1292;22662;-64
2024/04/08 05:49:58;;;;;;;10.50;6.40;;;;;;;13.89;76.74;100631.05;103780;1305;23952;-64
2024/04/08 05:52:24;;;;;;;14.40;5.60;;;;;;;14.00;76.76;100631.95;103882;1304;26638;-65
2024/04/08 05:54:49;;;;;;;9.00;6.70;;;;;;;14.11;76.75;100637.61;103645;1309;22556;-65
2024/04/08 05:57:15;;;;;;;12.40;7.60;;;;;;;14.27;76.80;100638.88;103911;1286;22551;-65
2024/04/08 05:59:40;;;;;;;10.50;8.00;;;;;;;14.42;76.83;100643.65;103723;1304;22564;-65
2024/04/08 06:02:07;;;;;;;12.90;8.00;;;;;;;14.55;76.79;100643.91;103698;1310;22593;-65
2024/04/08 06:04:33;;;;;;;8.30;6.60;;;;;;;14.68;76.88;100643.66;103878;1307;22553;-65
2024/04/08 06:06:58;;;;;;;9.10;6.50;;;;;;;14.79;76.74;100641.22;103658;1310;25565;-64
2024/04/08 06:09:23;;;;;;;9.40;6.20;;;;;;;14.88;76.81;100641.08;103829;1306;26246;-64
2024/04/08 06:11:49;;;;;;;10.10;5.70;;;;;;;14.99;76.74;100641.60;103674;1309;24316;-64
2024/04/08 06:14:14;;;;;;;9.30;5.70;;;;;;;15.15;76.87;100643.80;103772;1304;22550;-65
2024/04/08 06:16:40;;;;;;;8.20;6.20;;;;;;;15.29;76.68;100643.65;103889;1306;24305;-64
2024/04/08 06:19:06;;;;;;;14.90;7.90;;;;;;;15.39;76.94;100640.52;103812;1301;22553;-65
2024/04/08 06:21:37;;;;;;;13.30;7.20;;;;;;;15.47;76.93;100640.58;103862;1306;22621;-65
2024/04/08 06:24:16;;;;;;;;;;;;;;;;;;;;;
2024/04/08 06:26:45;;;;;;;16.20;7.20;;;;;;;15.65;76.76;100636.64;103875;1309;25558;-65
2024/04/08 06:29:13;;;;;;;9.60;8.20;;;;;;;15.81;76.97;100638.64;103906;1292;25171;-65
2024/04/08 06:31:39;;;;;;;14.20;8.00;;;;;;;15.97;76.85;100642.92;103752;1302;24311;-65
2024/04/08 06:34:04;;;;;;;9.30;6.60;;;;;;;16.12;76.88;100645.45;103869;1302;23770;-65
2024/04/08 06:36:35;;;;;;;8.90;7.90;;;;;;;16.34;76.98;100635.73;103729;1301;173047;-64
2024/04/08 06:39:02;;;;;;;11.90;6.70;;;;;;;16.54;76.80;100632.67;103604;1294;25444;-64
2024/04/08 06:41:28;;;;;;;12.40;7.80;;;;;;;16.68;76.50;100625.14;104229;1309;22557;-64
2024/04/08 06:44:00;;;;;;;11.10;7.50;;;;;;;16.70;76.11;100627.52;103884;1303;22856;-65
2024/04/08 06:46:29;;;;;;;9.10;7.50;;;;;;;16.75;76.36;100627.45;103924;1307;22551;-65
2024/04/08 06:48:54;;;;;;;10.30;7.60;;;;;;;16.88;76.53;100632.85;103817;1288;22793;-64
2024/04/08 06:51:22;;;;;;;10.90;6.80;;;;;;;16.95;76.09;100631.67;104465;1310;22938;-65
2024/04/08 06:53:48;;;;;;;10.30;8.30;;;;;;;17.01;76.34;100629.70;106704;1298;24005;-63
2024/04/08 06:56:16;;;;;;;11.10;7.60;;;;;;;17.12;76.10;100628.15;106603;1309;25381;-62
2024/04/08 06:58:42;;;;;;;11.80;7.80;;;;;;;17.22;76.26;100630.31;106728;1290;22611;-62
2024/04/08 07:01:08;;;;;;;15.80;8.70;;;;;;;17.37;76.37;100625.14;106624;1305;22625;-63
2024/04/08 07:03:34;;;;;;;19.00;9.50;;;;;;;17.53;76.26;100623.41;106755;1307;22592;-62
2024/04/08 07:05:59;;;;;;;12.60;8.60;;;;;;;17.67;76.21;100622.79;106756;1308;22581;-62
2024/04/08 07:08:25;;;;;;;11.80;8.70;;;;;;;17.85;76.08;100619.14;106663;1286;22592;-63
2024/04/08 07:10:51;;;;;;;13.70;8.40;;;;;;;18.04;75.28;100618.64;106532;1305;22602;-63
2024/04/08 07:13:18;;;;;;;9.10;7.40;;;;;;;18.17;74.99;100613.45;106701;1298;22738;-62
2024/04/08 07:15:57;;;;;;;10.20;7.80;;;;;;;18.31;75.11;100611.72;106549;1295;22520;-63
2024/04/08 07:18:24;;;;;;;9.10;7.10;;;;;;;18.47;75.32;100612.19;106470;1305;22569;-63
2024/04/08 07:20:49;;;;;;;10.70;7.90;;;;;;;18.68;75.86;100614.66;106455;1287;24240;-62
2024/04/08 07:23:15;;;;;;;11.50;7.60;;;;;;;18.94;75.94;100619.09;106465;1309;22908;-62
2024/04/08 07:25:40;;;;;;;13.00;8.60;;;;;;;19.20;75.43;100615.50;106712;1303;22623;-63
2024/04/08 07:28:06;;;;;;;9.40;8.40;;;;;;;19.36;74.88;100618.80;106546;1310;22532;-62
2024/04/08 07:30:31;;;;;;;11.80;8.20;;;;;;;19.51;74.17;100614.37;106630;1291;23734;-62
2024/04/08 07:32:57;;;;;;;12.80;7.50;;;;;;;19.68;75.18;100609.61;106587;1301;25226;-62
2024/04/08 07:35:23;;;;;;;9.40;8.20;;;;;;;20.01;75.56;100604.48;106384;1302;22608;-62
2024/04/08 07:37:49;;;;;;;11.60;7.80;;;;;;;20.37;74.32;100608.75;106858;1294;22656;-63
2024/04/08 07:40:15;;;;;;;7.80;7.00;;;;;;;20.67;74.83;100610.00;104810;1291;22797;-62
2024/04/08 07:42:42;;;;;;;8.80;7.10;;;;;;;20.99;74.25;100610.90;104454;1301;26106;-62
2024/04/08 07:45:08;;;;;;;;;;;;;;;21.27;74.31;100609.40;104420;1309;25399;-62
2024/04/08 07:47:33;;;;;;;10.10;7.10;;;;;;;21.51;74.12;100607.39;104399;1301;22546;-62
2024/04/08 07:49:59;;;;;;;7.80;6.00;;;;;;;21.66;74.55;100609.60;104035;1295;22550;-63
2024/04/08 07:52:26;;;;;;;10.00;6.50;;;;;;;21.83;74.27;100613.14;104320;1302;22715;-63
2024/04/08 07:54:51;;;;;;;8.20;6.60;;;;;;;21.76;73.06;100608.65;104334;1298;22560;-62
2024/04/08 07:57:18;;;;;;;8.30;6.70;;;;;;;21.52;72.98;100611.05;104211;1307;22603;-63
2024/04/08 07:59:43;;;;;;;14.00;7.50;;;;;;;21.59;73.59;100610.95;104462;1288;23636;-63
2024/04/08 08:02:08;;;;;;;7.40;6.50;;;;;;;21.87;73.22;100613.41;104473;1303;24399;-63
2024/04/08 08:04:34;;;;;;;11.60;7.40;;;;;;;22.16;73.26;100611.96;104345;1309;24511;-63
2024/04/08 08:06:59;;;;;;;10.50;7.30;;;;;;;22.32;72.61;100617.92;104287;1301;22593;-64
2024/04/08 08:09:25;;;;;;;8.60;6.80;;;;;;;22.60;71.13;100614.79;104376;1309;23998;-61
2024/04/08 08:11:50;;;;;;;16.10;6.80;;;;;;;22.89;71.53;100614.98;104274;1291;26540;-64
2024/04/08 08:14:15;;;;;;;7.80;7.00;;;;;;;23.37;70.95;100610.66;103909;1309;22587;-63
2024/04/08 08:16:42;;;;;;;7.40;6.70;;;;;;;23.84;70.57;100609.10;103900;1309;24273;-64
2024/04/08 08:19:08;;;;;;;8.00;7.10;;;;;;;24.26;68.89;100604.23;103907;1298;25405;-63
2024/04/08 08:21:33;;;;;;;13.40;7.40;;;;;;;24.51;67.59;100610.70;104139;1291;26529;-63
2024/04/08 08:23:59;;;;;;;9.20;6.80;;;;;;;24.60;65.70;100608.60;103892;1295;22704;-64
2024/04/08 08:26:28;;;;;;;7.20;6.30;;;;;;;24.63;63.40;100609.75;103919;1309;25513;-63
2024/04/08 08:28:54;;;;;;;10.30;6.50;;;;;;;24.65;66.30;100619.85;103878;1306;22583;-64
2024/04/08 08:31:20;;;;;;;7.40;6.70;;;;;;;25.04;64.81;100616.06;103896;1301;22679;-63
2024/04/08 08:33:46;;;;;;;7.20;6.50;;;;;;;25.21;64.07;100612.44;103931;1309;22619;-63
2024/04/08 08:36:11;;;;;;;10.00;5.60;;;;;;;25.85;64.13;100610.00;103909;1302;25396;-63
2024/04/08 08:38:37;;;;;;;7.70;6.70;;;;;;;26.32;63.46;100608.83;103844;1309;25324;-63
2024/04/08 08:41:07;;;;;;;7.90;7.10;;;;;;;26.49;62.42;100606.63;103862;1291;22568;-64
2024/04/08 08:43:37;;;;;;;7.20;6.40;;;;;;;26.59;62.66;100604.82;104010;1304;22573;-62
2024/04/08 08:46:03;;;;;;;9.50;6.80;;;;;;;26.64;59.75;100605.84;103858;1302;22564;-64
2024/04/08 08:48:29;;;;;;;11.80;7.40;;;;;;;26.74;61.44;100611.92;103877;1304;22551;-64
2024/04/08 08:50:56;;;;;;;6.80;6.20;;;;;;;26.95;62.13;100616.48;103854;1292;22564;-63
2024/04/08 08:53:21;;;;;;;9.30;5.90;;;;;;;27.19;61.21;100616.20;103863;1309;22620;-65
2024/04/08 08:55:50;;;;;;;10.00;6.50;;;;;;;27.15;60.57;100616.77;103849;1307;22571;-64
2024/04/08 08:58:16;;;;;;;8.20;6.80;;;;;;;26.91;60.42;100613.43;103993;1304;22802;-64
2024/04/08 09:00:42;;;;;;;7.70;6.60;;;;;;;26.60;59.94;100611.48;103789;1288;25354;-63
2024/04/08 09:03:12;;;;;;;10.00;7.00;;;;;;;26.06;59.85;100609.01;103852;1308;24631;-63
2024/04/08 09:05:38;;;;;;;7.50;5.70;;;;;;;25.75;59.28;100602.56;104245;1301;24259;-63
2024/04/08 09:08:04;;;;;;;9.00;6.80;;;;;;;25.26;57.79;100595.65;103860;1309;22767;-63
2024/04/08 09:10:44;;;;;;;7.90;6.00;;;;;;;24.87;58.33;100586.98;104007;1308;22783;-63
2024/04/08 09:13:23;;;;;;;7.90;5.50;;;;;;;24.48;58.04;100584.65;103784;1302;22554;-62
2024/04/08 09:15:52;;;;;;;9.70;5.90;;;;;;;24.08;58.38;100584.25;104180;1292;22677;-63
2024/04/08 09:18:19;;;;;;;8.30;6.30;;;;;;;23.91;57.77;100585.50;103793;1302;24012;-62
2024/04/08 09:20:44;;;;;;;;;;;;;;;23.90;58.12;100584.52;104150;1302;24506;-63
2024/04/08 09:23:11;;;;;;;10.70;6.10;;;;;;;23.84;57.05;100585.47;103770;1302;25407;-64
2024/04/08 09:25:36;;;;;;;8.70;6.00;;;;;;;23.71;56.90;100583.58;104035;1302;22600;-65
2024/04/08 09:28:02;;;;;;;15.40;6.40;;;;;;;23.55;56.36;100581.02;103936;1309;24448;-65
2024/04/08 09:30:27;;;;;;;6.60;5.40;;;;;;;23.45;56.11;100587.38;104039;1309;22555;-65
2024/04/08 09:32:54;;;;;;;9.80;5.50;;;;;;;23.44;57.04;100585.30;104719;1301;22561;-60
2024/04/08 09:35:21;;;;;;;10.20;6.00;;;;;;;23.87;57.31;100577.19;105003;1309;22557;-59
2024/04/08 09:37:47;;;;;;;;;;;;;;;24.51;57.01;100573.00;104869;1308;22538;-62
2024/04/08 09:40:15;;;;;;;6.90;5.10;;;;;;;24.90;56.23;100568.06;105214;1301;22566;-61
2024/04/08 09:42:42;;;;;;;7.00;5.80;;;;;;;25.03;56.05;100571.98;105257;1291;22619;-61
2024/04/08 09:45:09;;;;;;;7.50;5.80;;;;;;;25.16;56.59;100575.26;104872;1309;25372;-62
2024/04/08 09:47:36;;;;;;;;;;;;;;;25.33;55.82;100584.88;104727;1302;22505;-61
2024/04/08 09:50:03;;;;;;;10.70;6.30;;;;;;;25.01;54.94;100588.58;104442;1302;22945;-60
2024/04/08 09:52:29;;;;;;;10.00;5.80;;;;;;;24.68;55.70;100595.63;104492;1300;22607;-65
2024/04/08 09:54:56;;;;;;;7.80;6.40;;;;;;;24.62;56.47;100596.26;104599;1305;25249;-61
2024/04/08 09:57:25;;;;;;;;;;;;;;;24.64;56.46;100593.89;104361;1307;22728;-60
2024/04/08 09:59:54;;;;;;;9.20;5.50;;;;;;;24.55;56.45;100599.09;104742;1309;22672;-64
2024/04/08 10:02:37;;;;;;;7.60;5.50;;;;;;;24.62;56.93;100592.74;104269;1289;22587;-60
2024/04/08 10:05:04;;;;;;;11.70;5.60;;;;;;;25.33;56.91;100574.77;104553;1310;22574;-59
2024/04/08 10:07:32;;;;;;;11.30;5.70;;;;;;;26.59;56.60;100564.52;104760;1288;26613;-61
2024/04/08 10:10:03;;;;;;;8.10;5.60;;;;;;;28.08;55.44;100559.92;105041;1307;22561;-59
2024/04/08 10:12:35;;;;;;;9.20;5.30;;;;;;;29.26;54.11;100564.23;104714;1286;25506;-61
2024/04/08 10:15:11;;;;;;;10.80;5.30;;;;;;;29.79;52.69;100562.66;104911;1307;25156;-62
2024/04/08 10:17:40;;;;;;;8.50;5.70;;;;;;;30.10;53.71;100555.23;104495;1310;24069;-60
2024/04/08 10:20:07;;;;;;;9.00;5.10;;;;;;;29.94;53.23;100551.98;104902;1305;22568;-60
2024/04/08 10:22:38;;;;;;;10.00;5.00;;;;;;;29.84;53.47;100553.52;104419;1302;22668;-60
2024/04/08 10:25:04;;;;;;;7.30;5.50;;;;;;;30.45;53.09;100550.11;104753;1303;23131;-61
2024/04/08 10:27:33;;;;;;;8.30;5.50;;;;;;;30.77;50.99;100552.56;104342;1310;25971;-59
2024/04/08 10:29:59;;;;;;;8.70;5.30;;;;;;;29.99;50.06;100555.23;104346;1309;24325;-60
2024/04/08 10:32:25;;;;;;;9.00;5.30;;;;;;;29.56;51.68;100559.39;105772;1309;22541;-62
2024/04/08 10:34:55;;;;;;;10.90;5.60;;;;;;;29.88;51.79;100558.39;104182;1296;24153;-59
2024/04/08 10:37:20;;;;;;;10.00;5.70;;;;;;;30.32;51.37;100552.33;104583;1309;22573;-62
2024/04/08 10:39:45;;;;;;;9.80;5.70;;;;;;;30.51;49.85;100553.17;104607;1298;25437;-63
2024/04/08 10:42:18;;;;;;;8.70;5.00;;;;;;;30.06;49.90;100557.21;104585;1302;24199;-60
2024/04/08 10:44:44;;;;;;;7.90;5.80;;;;;;;29.56;50.38;100549.82;104867;1285;23068;-60
2024/04/08 10:47:09;;;;;;;9.30;5.50;;;;;;;29.29;49.59;100545.29;104395;1304;23966;-59
2024/04/08 10:49:36;;;;;;;8.70;5.10;;;;;;;29.26;49.00;100542.61;104538;1303;24019;-60
2024/04/08 10:52:02;;;;;;;10.90;5.30;;;;;;;29.38;49.13;100547.34;104439;1307;22564;-64
2024/04/08 10:54:28;;;;;;;8.80;5.40;;;;;;;29.61;49.10;100552.70;104147;1294;22834;-64
2024/04/08 10:56:54;;;;;;;13.70;5.50;;;;;;;29.45;48.94;100548.40;104584;1295;24242;-63
2024/04/08 10:59:20;;;;;;;9.50;5.60;;;;;;;29.15;49.27;100541.40;104628;1309;22594;-63
2024/04/08 11:01:45;;;;;;;6.20;5.20;;;;;;;28.88;49.15;100535.89;104111;1309;22947;-62
2024/04/08 11:04:11;;;;;;;10.50;6.00;;;;;;;28.55;49.21;100536.00;103719;1294;22914;-62
2024/04/08 11:06:38;;;;;;;9.70;5.40;;;;;;;28.41;49.13;100535.72;103943;1308;22881;-62
2024/04/08 11:09:05;;;;;;;9.70;5.90;;;;;;;28.75;49.43;100530.95;104177;1308;22633;-62
2024/04/08 11:11:31;;;;;;;8.50;5.80;;;;;;;29.49;48.15;100531.69;104092;1303;22805;-62
2024/04/08 11:13:56;;;;;;;10.60;5.60;;;;;;;30.46;48.41;100533.27;105315;1292;24215;-61